الصفحة الرئيسية
METAR-TAF:

METAR-TAF

مطار :

Dubbo, أستراليا

دائرة عرض: 32-12S, خط طول: 148-34E, ارتفاع: 275 متر

مراقبة الطقس الحالي

تاريخ ووقت الإصدار 32 دقيقة قبل الساعة 20:00UTC
ريح 9 عقدة من الجنوب/الجنوب الشرقي
درجة الحرارة 8°درجة مئوية
الرطوبة 93%
ضغط 1026 hPa
الرؤية 10 كم أو أكثر

METAR: YSDU 292000Z AUTO 15009KT 9999 // NCD 08/07 Q1026

زمن: 06:32 (20:32 UTC)

توقعات

تاريخ ووقت الإصدار 3ساعات و 21 دقيقة قبل الساعة 17:11UTC
التوقعات صالحة من29 الساعة 18 UTC إلى 30 الساعة 12 UTC
ريح 8 عقدة من الشرق
الرؤية 10 كم أو أكثر
غيوم متفرقة على ارتفاع 1000 قدم
من 29 الساعة 2300 UTC
ريح 8 عقدة من الشرق
الرؤية 10 كم أو أكثر
الغيوم لا تقل 1500 م ولا وجود لمزنة ركامية السحاب الأسود
من 30 الساعة 0300 UTC
ريح 8 عقدة من الشمال
الرؤية 10 كم أو أكثر
غيوم متفرقة على ارتفاع 4000 قدم
من 30 الساعة 1000 UTC
ريح 8 عقدة من الشمال/الشمال الشرقي
الرؤية 10 كم أو أكثر
الغيوم لا تقل 1500 م ولا وجود لمزنة ركامية السحاب الأسود

TAF: YSDU 291711Z 2918/3012 10008KT 9999 SCT010 FM292300 08008KT CAVOK FM300300 36008KT 9999 SCT040 FM301000 03008KT CAVOK

أرصاد الطقس والتوقعات من أكثر من 4000 مطار (تقارير الطقس للمطار METAR والتنبؤ بالطقس بالمطارTAF).

المحطات المتاحة هي النقط الصفراء والحمراء على الخريطة.

حرك المؤشر فوق النقطة لمعرفة اسم المحطة.

ثم انقر لمعرفة أرصاد وتوقعات الطقس.

لتغيير الخارطة: اضغط على الأزرار الخضراء مع رمز الصليب الأسود للتكبير. على الزر الأخضر مع شرطة للتصغير، أو على الأسهم الخضراء للخرائط المجاورة.


METAR-TAF: